Time;durP1;ratioP1;P1;durP2;ratioP2;P2;SDS_P1;SDS_P2;PMS_P1;PMS_P2;Temp;Humidity;BMP_temperature;BMP_pressure;BME280_temperature;BME280_humidity;BME280_pressure;Samples;Min_cycle;Max_cycle;Signal;HPM_P1;HPM_P2
2023/03/18 00:02:06;;;;;;;21.88;16.08;;;;;;;8.97;nan;100695.25;4973809;28;20125;-53
2023/03/18 00:04:31;;;;;;;22.40;16.80;;;;;;;8.98;nan;100686.50;4972118;28;20039;-50
2023/03/18 00:06:56;;;;;;;21.40;17.25;;;;;;;9.02;nan;100680.22;4973291;28;20043;-50
2023/03/18 00:09:22;;;;;;;21.00;17.00;;;;;;;8.89;nan;100652.63;4973385;28;20031;-50
2023/03/18 00:11:48;;;;;;;19.90;16.92;;;;;;;8.63;nan;100605.25;4973441;28;20101;-52
2023/03/18 00:14:13;;;;;;;27.23;18.42;;;;;;;8.65;nan;100596.44;4973463;28;20470;-54
2023/03/18 00:16:39;;;;;;;30.20;18.17;;;;;;;9.20;nan;100681.47;4973852;28;20105;-51
2023/03/18 00:19:05;;;;;;;21.52;17.90;;;;;;;9.26;nan;100689.16;4973104;28;20288;-50
2023/03/18 00:21:30;;;;;;;24.27;18.05;;;;;;;9.34;nan;100689.81;4973357;28;20054;-51
2023/03/18 00:23:57;;;;;;;28.00;18.08;;;;;;;8.99;nan;100598.94;4973226;28;20419;-51
2023/03/18 00:26:24;;;;;;;21.65;17.60;;;;;;;8.94;nan;100591.19;4973045;28;20050;-49
2023/03/18 00:28:50;;;;;;;25.30;17.70;;;;;;;9.51;nan;100682.28;4988136;28;20086;-50
2023/03/18 00:31:15;;;;;;;26.08;17.83;;;;;;;9.56;nan;100689.13;4973149;28;20038;-52
2023/03/18 00:33:44;;;;;;;21.13;16.85;;;;;;;9.49;nan;100681.47;4973014;28;20034;-53
2023/03/18 00:36:14;;;;;;;23.42;17.48;;;;;;;9.42;nan;100686.06;4972682;28;20035;-51
2023/03/18 00:38:44;;;;;;;24.20;17.60;;;;;;;9.34;nan;100701.16;4972978;28;20035;-54
2023/03/18 00:41:10;;;;;;;23.97;18.07;;;;;;;9.25;nan;100682.22;4972991;28;20030;-49
2023/03/18 00:43:44;;;;;;;25.08;17.95;;;;;;;9.23;nan;100691.88;4973102;28;20133;-53
2023/03/18 00:46:12;;;;;;;25.20;17.40;;;;;;;9.17;nan;100671.91;4971686;28;20084;-50
2023/03/18 00:48:37;;;;;;;22.33;17.80;;;;;;;9.06;nan;100655.63;4972685;28;20045;-50
2023/03/18 00:51:03;;;;;;;26.60;17.48;;;;;;;9.12;nan;100667.69;4971270;28;20058;-50
2023/03/18 00:53:29;;;;;;;23.38;18.25;;;;;;;8.70;nan;100598.94;4972452;28;20049;-50
2023/03/18 00:55:54;;;;;;;24.30;18.25;;;;;;;9.15;nan;100684.22;4972876;28;20047;-52
2023/03/18 00:58:19;;;;;;;22.83;18.15;;;;;;;8.68;nan;100606.84;4987625;28;20085;-51
2023/03/18 01:00:45;;;;;;;20.08;16.45;;;;;;;9.00;nan;100654.03;4971311;28;20053;-49
2023/03/18 01:03:11;;;;;;;26.40;19.08;;;;;;;9.12;nan;100678.22;4972551;28;20343;-50
2023/03/18 01:05:37;;;;;;;22.38;17.77;;;;;;;9.11;nan;100674.72;4972472;28;20114;-54
2023/03/18 01:08:03;;;;;;;22.98;18.83;;;;;;;8.64;nan;100597.31;4979804;28;20046;-52
2023/03/18 01:10:29;;;;;;;25.17;18.42;;;;;;;9.05;nan;100662.63;4992105;28;20048;-52
2023/03/18 01:12:54;;;;;;;26.25;19.15;;;;;;;9.09;nan;100673.91;4991997;28;20047;-51
2023/03/18 01:15:20;;;;;;;26.58;18.70;;;;;;;9.07;nan;100670.47;4991843;28;20501;-55
2023/03/18 01:17:46;;;;;;;24.33;18.27;;;;;;;9.07;nan;100669.59;4990577;28;20034;-49
2023/03/18 01:20:15;;;;;;;22.27;17.33;;;;;;;8.98;nan;100649.72;4991748;28;20102;-55
2023/03/18 01:22:41;;;;;;;22.50;18.20;;;;;;;8.86;nan;100640.44;4986481;28;20023;-52
2023/03/18 01:25:08;;;;;;;23.25;17.52;;;;;;;8.66;nan;100597.28;4972570;28;20502;-50
2023/03/18 01:27:34;;;;;;;26.55;18.25;;;;;;;7.84;nan;100465.84;4986903;28;20482;-50
2023/03/18 01:30:00;;;;;;;22.98;17.60;;;;;;;9.15;nan;100670.25;4987076;28;20442;-52
2023/03/18 01:32:25;;;;;;;18.75;16.65;;;;;;;9.05;nan;100656.50;4972369;28;20039;-51
2023/03/18 01:34:51;;;;;;;21.52;17.58;;;;;;;8.98;nan;100634.84;4972430;28;20486;-50
2023/03/18 01:37:16;;;;;;;24.27;16.98;;;;;;;9.17;nan;100669.28;4972392;28;20114;-54
2023/03/18 01:39:41;;;;;;;20.02;16.55;;;;;;;9.07;nan;100643.34;4972121;28;20039;-50
2023/03/18 01:42:07;;;;;;;22.52;17.10;;;;;;;8.90;nan;100620.22;4987905;28;20037;-52
2023/03/18 01:44:32;;;;;;;19.88;16.73;;;;;;;9.30;nan;100675.91;4990346;28;20474;-53
2023/03/18 01:46:57;;;;;;;20.55;16.13;;;;;;;9.52;nan;100684.00;4991571;28;20121;-55
2023/03/18 01:49:33;;;;;;;27.48;17.27;;;;;;;9.61;nan;100678.47;4991055;28;20054;-52
2023/03/18 01:52:01;;;;;;;21.65;15.95;;;;;;;9.63;nan;100684.53;4991757;28;20030;-50
2023/03/18 01:54:28;;;;;;;18.13;16.17;;;;;;;9.54;nan;100667.28;4991566;28;20050;-55
2023/03/18 01:56:54;;;;;;;26.67;17.73;;;;;;;9.59;nan;100688.16;4991634;28;20100;-53
2023/03/18 01:59:22;;;;;;;21.52;16.80;;;;;;;9.44;nan;100649.22;4989566;28;20046;-52
2023/03/18 02:01:52;;;;;;;19.33;16.50;;;;;;;9.61;nan;100679.31;4990125;28;20465;-49
2023/03/18 02:04:18;;;;;;;21.10;17.20;;;;;;;9.37;nan;100624.06;4990302;28;20031;-51
2023/03/18 02:06:44;;;;;;;24.48;16.40;;;;;;;9.52;nan;100648.06;4990155;28;20045;-50
2023/03/18 02:09:10;;;;;;;20.90;16.63;;;;;;;9.58;nan;100671.53;4991418;28;20030;-50
2023/03/18 02:11:43;;;;;;;22.83;16.88;;;;;;;9.66;nan;100680.97;4990313;28;20038;-54
2023/03/18 02:14:10;;;;;;;21.23;17.08;;;;;;;9.56;nan;100670.72;4989320;28;20085;-50
2023/03/18 02:16:54;;;;;;;25.25;17.30;;;;;;;9.54;nan;100667.28;4993603;28;20157;-53
2023/03/18 02:19:43;;;;;;;22.02;16.65;;;;;;;9.56;nan;100680.38;4993651;28;20037;-52
2023/03/18 02:22:09;;;;;;;21.83;17.58;;;;;;;9.55;nan;100686.53;4994945;28;20121;-51
2023/03/18 02:25:03;;;;;;;24.90;18.25;;;;;;;9.56;nan;100680.38;4994900;28;20126;-51
2023/03/18 02:27:32;;;;;;;21.88;17.77;;;;;;;9.61;nan;100687.22;4993401;28;20061;-52
2023/03/18 02:30:03;;;;;;;23.27;17.42;;;;;;;9.62;nan;100688.06;4994905;28;20029;-53
2023/03/18 02:32:30;;;;;;;24.42;18.80;;;;;;;9.37;nan;100626.69;4993742;28;20117;-55
2023/03/18 02:34:58;;;;;;;26.15;19.98;;;;;;;9.22;nan;100601.75;4993091;28;20121;-56
2023/03/18 02:37:23;;;;;;;29.13;20.30;;;;;;;9.59;nan;100675.03;4993328;28;20077;-53
2023/03/18 02:39:49;;;;;;;22.40;18.27;;;;;;;9.57;nan;100668.97;4993631;28;20030;-55
2023/03/18 02:42:14;;;;;;;22.75;18.55;;;;;;;9.05;nan;100588.25;4992998;28;20038;-52
2023/03/18 02:44:42;;;;;;;28.65;18.90;;;;;;;9.42;nan;100651.03;4994310;28;20035;-55
2023/03/18 02:47:19;;;;;;;22.30;18.15;;;;;;;9.61;nan;100692.47;4993268;28;20026;-54
2023/03/18 02:49:45;;;;;;;23.42;18.63;;;;;;;9.21;nan;100610.53;4991808;28;20046;-52
2023/03/18 02:52:10;;;;;;;26.58;19.52;;;;;;;9.57;nan;100664.53;4994368;28;20057;-53
2023/03/18 02:54:36;;;;;;;25.08;18.35;;;;;;;9.68;nan;100671.25;4994310;28;20027;-53
2023/03/18 02:57:01;;;;;;;26.40;18.63;;;;;;;9.67;nan;100686.16;4992934;28;20474;-51
2023/03/18 02:59:27;;;;;;;23.23;18.55;;;;;;;9.25;nan;100588.50;4994315;28;20166;-51
2023/03/18 03:01:53;;;;;;;21.20;18.17;;;;;;;9.81;nan;100686.56;4976484;28;20035;-50
2023/03/18 03:04:22;;;;;;;25.13;18.40;;;;;;;9.83;nan;100689.19;4991895;28;20037;-53
2023/03/18 03:06:47;;;;;;;24.30;18.20;;;;;;;9.83;nan;100690.03;4992548;28;20034;-52
2023/03/18 03:09:15;;;;;;;21.30;17.52;;;;;;;9.75;nan;100678.88;4994210;28;20501;-52
2023/03/18 03:11:42;;;;;;;22.02;18.13;;;;;;;9.45;nan;100619.41;4992756;28;20026;-54
2023/03/18 03:14:08;;;;;;;23.70;18.45;;;;;;;9.59;nan;100625.97;4994251;28;20058;-55
2023/03/18 03:16:34;;;;;;;22.40;17.75;;;;;;;9.99;nan;100688.63;4993615;28;20500;-47
2023/03/18 03:18:59;;;;;;;23.05;17.95;;;;;;;9.57;nan;100646.16;4993641;28;20026;-54
2023/03/18 03:21:25;;;;;;;22.42;18.38;;;;;;;10.03;nan;100692.03;4991524;28;20125;-55
2023/03/18 03:23:51;;;;;;;22.20;17.67;;;;;;;10.02;nan;100706.94;4993779;28;20038;-51
2023/03/18 03:26:17;;;;;;;22.02;17.17;;;;;;;9.81;nan;100662.91;4991864;28;20065;-57
2023/03/18 03:28:43;;;;;;;22.30;16.10;;;;;;;9.66;nan;100621.34;4993066;28;20507;-52
2023/03/18 03:31:09;;;;;;;22.00;18.00;;;;;;;10.11;nan;100698.75;4992390;28;20138;-54
2023/03/18 03:33:40;;;;;;;20.45;17.20;;;;;;;10.11;nan;100719.78;4993394;28;20617;-51
2023/03/18 03:36:06;;;;;;;23.58;17.88;;;;;;;9.65;nan;100617.03;4992746;28;20084;-55
2023/03/18 03:38:32;;;;;;;20.13;17.20;;;;;;;10.09;nan;100705.84;4992329;28;20065;-54
2023/03/18 03:40:57;;;;;;;25.48;16.95;;;;;;;9.75;nan;100628.94;4993590;28;20466;-52
2023/03/18 03:43:23;;;;;;;22.27;17.27;;;;;;;10.18;nan;100699.44;4992110;28;20034;-54
2023/03/18 03:45:48;;;;;;;25.02;17.85;;;;;;;10.26;nan;100705.31;4992049;28;20038;-49
2023/03/18 03:48:13;;;;;;;21.33;17.30;;;;;;;10.27;nan;100716.69;4993199;28;20034;-48
2023/03/18 03:50:39;;;;;;;23.38;17.75;;;;;;;10.30;nan;100722.72;4993024;28;20058;-55
2023/03/18 03:53:05;;;;;;;24.95;17.88;;;;;;;10.24;nan;100725.56;4991826;28;20046;-53
2023/03/18 03:55:32;;;;;;;27.08;18.33;;;;;;;10.20;nan;100725.69;4991043;28;20123;-52
2023/03/18 03:57:58;;;;;;;23.30;18.23;;;;;;;10.17;nan;100721.41;4993233;28;20042;-55
2023/03/18 04:00:23;;;;;;;24.77;19.17;;;;;;;10.06;nan;100698.06;4993156;28;20476;-54
2023/03/18 04:02:50;;;;;;;25.75;18.80;;;;;;;9.46;nan;100611.47;4993051;28;20054;-51
2023/03/18 04:05:17;;;;;;;23.25;18.70;;;;;;;10.01;nan;100704.38;4993198;28;20478;-51
2023/03/18 04:07:44;;;;;;;25.33;19.13;;;;;;;10.02;nan;100711.31;4991960;28;20034;-49
2023/03/18 04:10:10;;;;;;;28.60;20.00;;;;;;;9.49;nan;100623.66;4992815;28;20142;-48
2023/03/18 04:12:37;;;;;;;24.40;18.60;;;;;;;9.99;nan;100712.28;4990937;28;20457;-48
2023/03/18 04:15:03;;;;;;;26.88;19.85;;;;;;;9.56;nan;100648.84;4991658;28;20057;-49
2023/03/18 04:17:29;;;;;;;24.83;19.88;;;;;;;9.87;nan;100703.91;4992689;28;20467;-49
2023/03/18 04:19:54;;;;;;;28.92;21.55;;;;;;;9.46;nan;100634.25;4991757;28;20148;-49
2023/03/18 04:22:20;;;;;;;25.95;19.45;;;;;;;9.73;nan;100687.72;4992786;28;20375;-51
2023/03/18 04:24:45;;;;;;;27.00;21.25;;;;;;;9.93;nan;100723.00;4991459;28;20041;-53
2023/03/18 04:27:12;;;;;;;28.83;21.35;;;;;;;9.42;nan;100651.91;4992655;28;20149;-52
2023/03/18 04:29:37;;;;;;;28.48;22.10;;;;;;;9.86;nan;100734.63;4991638;28;20038;-53
2023/03/18 04:32:03;;;;;;;28.67;21.90;;;;;;;9.52;nan;100669.09;4990978;28;20246;-48
2023/03/18 04:34:28;;;;;;;26.60;20.92;;;;;;;9.46;nan;100665.78;4992724;28;20192;-52
2023/03/18 04:36:54;;;;;;;25.92;20.90;;;;;;;9.50;nan;100676.16;4991822;28;20417;-50
2023/03/18 04:39:20;;;;;;;25.92;20.92;;;;;;;9.51;nan;100675.28;4990729;28;20418;-52
2023/03/18 04:41:47;;;;;;;24.65;20.98;;;;;;;9.87;nan;100765.25;4992162;28;20498;-51
2023/03/18 04:44:12;;;;;;;27.05;21.08;;;;;;;9.86;nan;100753.03;4992414;28;20089;-55
2023/03/18 04:46:37;;;;;;;27.40;21.05;;;;;;;9.45;nan;100688.59;4991914;28;20038;-51
2023/03/18 04:49:03;;;;;;;23.63;20.35;;;;;;;9.48;nan;100685.88;4992335;28;20112;-52
2023/03/18 04:51:28;;;;;;;24.65;21.02;;;;;;;9.88;nan;100761.72;4992390;28;20121;-51
2023/03/18 04:53:54;;;;;;;27.77;21.13;;;;;;;9.77;nan;100748.06;4991542;28;20043;-52
2023/03/18 04:56:19;;;;;;;25.00;21.00;;;;;;;9.84;nan;100756.59;4992008;28;20517;-53
2023/03/18 04:58:45;;;;;;;26.10;19.60;;;;;;;9.52;nan;100700.63;4992130;28;20042;-50
2023/03/18 05:01:11;;;;;;;25.95;20.92;;;;;;;9.87;nan;100760.00;4990639;28;20034;-47
2023/03/18 05:03:37;;;;;;;26.48;20.95;;;;;;;9.75;nan;100752.47;4992284;28;20441;-55
2023/03/18 05:06:03;;;;;;;27.25;20.80;;;;;;;9.33;nan;100683.69;4991970;28;20049;-51
2023/03/18 05:08:28;;;;;;;26.77;20.88;;;;;;;9.74;nan;100752.53;4991257;28;20041;-53
2023/03/18 05:10:53;;;;;;;29.80;20.48;;;;;;;9.82;nan;100767.16;4992222;28;20034;-48
2023/03/18 05:13:19;;;;;;;24.75;20.08;;;;;;;9.77;nan;100769.09;4992065;28;20077;-53
2023/03/18 05:15:44;;;;;;;27.67;20.08;;;;;;;9.24;nan;100685.72;4990174;28;20109;-51
2023/03/18 05:18:11;;;;;;;23.67;20.27;;;;;;;9.46;nan;100736.72;4990667;28;20034;-50
2023/03/18 05:20:36;;;;;;;23.48;20.27;;;;;;;9.60;nan;100771.38;4991439;28;20035;-55
2023/03/18 05:23:03;;;;;;;27.77;21.35;;;;;;;9.59;nan;100775.75;4991738;28;20081;-51
2023/03/18 05:25:28;;;;;;;29.75;21.05;;;;;;;9.52;nan;100757.56;4991070;28;20038;-49
2023/03/18 05:27:53;;;;;;;26.08;22.30;;;;;;;8.32;nan;100550.16;4990492;28;20038;-54
2023/03/18 05:30:19;;;;;;;28.52;22.90;;;;;;;9.57;nan;100771.44;4990433;28;20108;-51
2023/03/18 05:32:45;;;;;;;26.77;22.35;;;;;;;9.29;nan;100699.59;4992013;28;20038;-52
2023/03/18 05:35:10;;;;;;;28.27;22.17;;;;;;;9.05;nan;100662.63;4990570;28;20057;-54
2023/03/18 05:37:36;;;;;;;28.75;23.23;;;;;;;9.29;nan;100697.81;4991833;28;20077;-54
2023/03/18 05:40:03;;;;;;;28.55;22.75;;;;;;;9.14;nan;100677.25;4990615;28;20464;-51
2023/03/18 05:42:29;;;;;;;32.30;23.75;;;;;;;9.15;nan;100676.34;4990401;28;20192;-49
2023/03/18 05:44:55;;;;;;;26.23;23.10;;;;;;;9.14;nan;100690.38;4991635;28;20422;-53
2023/03/18 05:47:21;;;;;;;28.17;22.77;;;;;;;9.63;nan;100755.50;4991579;28;20542;-51
2023/03/18 05:49:47;;;;;;;30.42;23.92;;;;;;;9.52;nan;100744.41;4991661;28;20081;-56
2023/03/18 05:52:12;;;;;;;28.15;24.00;;;;;;;9.13;nan;100683.44;4995346;28;20324;-54
2023/03/18 05:54:38;;;;;;;29.95;24.00;;;;;;;9.09;nan;100676.53;4995403;28;20525;-50
2023/03/18 05:57:03;;;;;;;29.77;25.10;;;;;;;9.30;nan;100730.19;4993425;28;20415;-53
2023/03/18 05:59:30;;;;;;;28.52;22.92;;;;;;;9.31;nan;100751.16;4994983;28;20080;-56
2023/03/18 06:01:55;;;;;;;27.48;23.77;;;;;;;8.73;nan;100678.41;4995768;28;20212;-52
2023/03/18 06:04:21;;;;;;;29.38;23.15;;;;;;;8.63;nan;100681.34;4995207;28;20165;-54
2023/03/18 06:06:47;;;;;;;30.52;23.73;;;;;;;8.79;nan;100751.75;4995051;28;20042;-52
2023/03/18 06:09:13;;;;;;;30.48;24.65;;;;;;;8.40;nan;100700.31;4993786;28;20049;-56
2023/03/18 06:11:39;;;;;;;33.58;25.63;;;;;;;8.64;nan;100753.91;4994146;28;20035;-54
2023/03/18 06:14:05;;;;;;;28.95;24.08;;;;;;;8.63;nan;100763.53;4993599;28;20118;-52
2023/03/18 06:16:32;;;;;;;28.88;23.10;;;;;;;8.15;nan;100707.88;4995060;28;20057;-56
2023/03/18 06:18:57;;;;;;;29.70;25.75;;;;;;;8.50;nan;100783.09;4995090;28;20030;-52
2023/03/18 06:21:23;;;;;;;31.45;25.08;;;;;;;8.44;nan;100789.38;4993727;28;20089;-51
2023/03/18 06:23:49;;;;;;;28.40;25.30;;;;;;;8.42;nan;100806.03;4993623;28;20069;-54
2023/03/18 06:26:14;;;;;;;31.45;25.23;;;;;;;8.11;nan;100752.59;4994454;28;20042;-54
2023/03/18 06:28:40;;;;;;;36.40;25.73;;;;;;;8.30;nan;100777.47;4993577;28;20493;-52
2023/03/18 06:31:05;;;;;;;31.70;25.52;;;;;;;8.35;nan;100781.72;4992715;28;20041;-52
2023/03/18 06:33:31;;;;;;;38.08;28.65;;;;;;;8.17;nan;100737.53;4994770;28;20066;-51
2023/03/18 06:35:59;;;;;;;37.70;28.50;;;;;;;8.87;nan;100825.88;4993376;28;20042;-51
2023/03/18 06:38:24;;;;;;;35.97;27.77;;;;;;;9.06;nan;100807.91;4992897;28;20117;-55
2023/03/18 06:40:50;;;;;;;34.67;26.13;;;;;;;8.87;nan;100747.13;4994561;28;20113;-53
2023/03/18 06:43:15;;;;;;;29.80;25.50;;;;;;;9.36;nan;100820.22;4992918;28;20172;-51
2023/03/18 06:45:40;;;;;;;34.00;25.27;;;;;;;9.12;nan;100749.97;4994361;28;20106;-50
2023/03/18 06:48:08;;;;;;;30.48;24.35;;;;;;;9.67;nan;100814.94;4992546;28;20042;-53
2023/03/18 06:50:33;;;;;;;28.73;23.80;;;;;;;9.70;nan;100819.25;4992952;28;20509;-51
2023/03/18 06:52:59;;;;;;;28.75;23.42;;;;;;;9.37;nan;100755.41;4994412;28;20031;-46
2023/03/18 06:55:25;;;;;;;29.02;24.17;;;;;;;9.87;nan;100828.34;4994154;28;20703;-53
2023/03/18 06:57:51;;;;;;;33.50;25.50;;;;;;;9.99;nan;100840.28;4992886;28;20038;-50
2023/03/18 07:00:17;;;;;;;25.70;22.92;;;;;;;10.00;nan;100831.50;4994265;28;20027;-52
2023/03/18 07:02:42;;;;;;;27.10;21.98;;;;;;;9.99;nan;100838.50;4994020;28;20045;-50
2023/03/18 07:05:08;;;;;;;28.67;23.33;;;;;;;9.98;nan;100834.16;4993280;28;20511;-53
2023/03/18 07:07:36;;;;;;;28.27;23.58;;;;;;;9.59;nan;100754.72;4994183;28;20034;-56
2023/03/18 07:10:03;;;;;;;28.77;23.45;;;;;;;10.12;nan;100842.50;4992771;28;20038;-50
2023/03/18 07:12:29;;;;;;;26.83;22.95;;;;;;;9.78;nan;100765.53;4993736;28;20453;-48
2023/03/18 07:14:55;;;;;;;24.45;21.83;;;;;;;9.80;nan;100768.13;4994018;28;20045;-52
2023/03/18 07:17:20;;;;;;;27.80;21.98;;;;;;;9.82;nan;100764.53;4992734;28;20105;-53
2023/03/18 07:19:45;;;;;;;27.10;21.88;;;;;;;10.22;nan;100826.44;4992988;28;20060;-53
2023/03/18 07:22:11;;;;;;;29.63;22.92;;;;;;;10.30;nan;100824.47;4993923;28;20044;-55
2023/03/18 07:24:36;;;;;;;30.42;23.02;;;;;;;10.49;nan;100844.00;4992346;28;20038;-50
2023/03/18 07:27:03;;;;;;;23.90;19.15;;;;;;;10.64;nan;100831.22;4993449;28;20121;-52
2023/03/18 07:29:28;;;;;;;23.63;18.88;;;;;;;11.03;nan;100842.19;4992339;28;20049;-50
2023/03/18 07:31:54;;;;;;;21.13;18.85;;;;;;;10.86;nan;100747.09;4993509;28;20042;-54
2023/03/18 07:34:20;;;;;;;22.30;18.30;;;;;;;11.49;nan;100808.97;4993721;28;20378;-53
2023/03/18 07:36:45;;;;;;;19.30;16.75;;;;;;;11.96;nan;100834.47;4992733;28;20042;-50
2023/03/18 07:39:11;;;;;;;20.00;17.52;;;;;;;12.40;nan;100830.91;4992197;28;20034;-53
2023/03/18 07:41:36;;;;;;;18.30;14.93;;;;;;;12.76;nan;100835.63;4993491;28;20069;-54
2023/03/18 07:44:02;;;;;;;16.23;14.57;;;;;;;12.81;nan;100786.97;4992181;28;20030;-51
2023/03/18 07:46:27;;;;;;;17.27;14.45;;;;;;;13.41;nan;100841.66;4993289;28;20080;-48
2023/03/18 07:48:53;;;;;;;16.85;14.25;;;;;;;12.53;nan;100648.25;4992089;28;20366;-55
2023/03/18 07:51:18;;;;;;;17.42;13.40;;;;;;;13.98;nan;100856.69;4992072;28;20390;-52
2023/03/18 07:53:44;;;;;;;15.32;13.73;;;;;;;14.21;nan;100870.66;4993272;28;20039;-55
2023/03/18 07:56:09;;;;;;;14.63;12.50;;;;;;;14.11;nan;100788.16;4992594;28;20415;-54
2023/03/18 07:58:36;;;;;;;14.50;12.13;;;;;;;14.78;nan;100875.84;4993264;28;20439;-51
2023/03/18 08:01:01;;;;;;;13.35;12.02;;;;;;;14.83;nan;100876.47;4993385;28;20217;-56
2023/03/18 08:03:27;;;;;;;13.65;12.00;;;;;;;14.67;nan;100859.63;4993119;28;20118;-54
2023/03/18 08:05:53;;;;;;;13.68;12.25;;;;;;;14.76;nan;100879.50;4991587;28;20112;-55
2023/03/18 08:08:18;;;;;;;12.65;11.35;;;;;;;15.17;nan;100879.19;4990791;28;20404;-56
2023/03/18 08:10:44;;;;;;;13.50;12.10;;;;;;;15.17;nan;100881.84;4991823;28;20041;-53
2023/03/18 08:13:09;;;;;;;12.90;11.48;;;;;;;14.93;nan;100829.19;4991157;28;20117;-57
2023/03/18 08:15:35;;;;;;;12.00;10.90;;;;;;;15.45;nan;100886.56;4991631;28;20347;-54
2023/03/18 08:18:01;;;;;;;12.18;10.38;;;;;;;16.15;nan;100881.06;4992932;28;20129;-56
2023/03/18 08:20:27;;;;;;;11.40;10.20;;;;;;;16.19;nan;100868.47;4991635;28;20034;-51
2023/03/18 08:22:52;;;;;;;14.20;10.50;;;;;;;16.69;nan;100871.00;4991511;28;20030;-56
2023/03/18 08:25:18;;;;;;;12.52;10.48;;;;;;;15.61;nan;100656.69;4992650;28;20042;-51
2023/03/18 08:27:44;;;;;;;11.60;10.30;;;;;;;16.95;nan;100803.88;4992924;28;20121;-53
2023/03/18 08:30:10;;;;;;;11.38;9.88;;;;;;;17.77;nan;100892.91;4992808;28;20117;-54
2023/03/18 08:32:36;;;;;;;10.75;9.43;;;;;;;18.24;nan;100895.25;4992835;28;20034;-53
2023/03/18 08:35:01;;;;;;;14.40;9.05;;;;;;;18.47;nan;100873.38;4991137;28;20534;-54
2023/03/18 08:37:27;;;;;;;11.40;9.60;;;;;;;18.87;nan;100950.78;4992585;28;20489;-55
2023/03/18 08:39:53;;;;;;;12.60;9.93;;;;;;;18.49;nan;100875.94;4992323;28;20030;-56
2023/03/18 08:42:18;;;;;;;14.13;10.20;;;;;;;19.07;nan;100942.34;4991454;28;20048;-58
2023/03/18 08:44:44;;;;;;;11.90;9.57;;;;;;;18.96;nan;100942.19;4992394;28;20065;-54
2023/03/18 08:47:09;;;;;;;11.40;8.90;;;;;;;18.85;nan;100889.56;4992482;28;20093;-55
2023/03/18 08:49:35;;;;;;;10.95;9.43;;;;;;;18.96;nan;100902.19;4992103;28;20042;-53
2023/03/18 08:52:01;;;;;;;10.82;9.25;;;;;;;19.16;nan;100968.44;4992430;28;20034;-52
2023/03/18 08:54:27;;;;;;;13.15;10.38;;;;;;;18.81;nan;100959.19;4992239;28;20493;-53
2023/03/18 08:56:54;;;;;;;12.63;10.27;;;;;;;18.70;nan;100978.56;4992161;28;20050;-51
2023/03/18 08:59:19;;;;;;;12.10;10.35;;;;;;;17.91;nan;100922.22;4991632;28;20042;-50
2023/03/18 09:01:44;;;;;;;13.90;11.60;;;;;;;17.19;nan;100958.50;4990912;28;20038;-51
2023/03/18 09:04:10;;;;;;;13.30;11.90;;;;;;;16.23;nan;100892.13;4992273;28;20488;-55
2023/03/18 09:06:35;;;;;;;13.85;12.07;;;;;;;16.77;nan;100952.03;4991972;28;20046;-55
2023/03/18 09:09:00;;;;;;;14.07;12.55;;;;;;;17.12;nan;100957.13;4991914;28;20114;-53
2023/03/18 09:11:26;;;;;;;12.55;11.10;;;;;;;17.93;nan;100962.91;4992371;28;20363;-53
2023/03/18 09:13:52;;;;;;;13.63;12.32;;;;;;;18.04;nan;100950.78;4991795;28;20120;-57
2023/03/18 09:16:17;;;;;;;16.00;13.07;;;;;;;18.07;nan;100914.13;4991077;28;20053;-54
2023/03/18 09:18:43;;;;;;;14.85;13.35;;;;;;;18.07;nan;100922.09;4992063;28;20088;-53
2023/03/18 09:21:08;;;;;;;17.92;15.20;;;;;;;17.55;nan;100910.25;4991983;28;20038;-55
2023/03/18 09:23:34;;;;;;;17.98;16.15;;;;;;;17.91;nan;100953.31;4991800;28;20497;-51
2023/03/18 09:25:59;;;;;;;18.88;16.88;;;;;;;18.24;nan;100945.88;4994785;28;20041;-55
2023/03/18 09:28:25;;;;;;;19.92;17.33;;;;;;;17.79;nan;100964.69;4978723;28;20042;-52
2023/03/18 09:30:51;;;;;;;21.85;19.52;;;;;;;17.15;nan;100954.28;4994948;28;20429;-56
2023/03/18 09:33:17;;;;;;;20.92;18.73;;;;;;;17.03;nan;100931.06;4995015;28;20046;-51
2023/03/18 09:35:43;;;;;;;19.70;17.60;;;;;;;17.74;nan;100945.50;4995671;28;20374;-53
2023/03/18 09:38:18;;;;;;;19.25;17.25;;;;;;;18.49;nan;100887.47;4995739;28;20038;-54
2023/03/18 09:41:07;;;;;;;16.48;14.93;;;;;;;19.86;nan;100958.38;4994635;28;20069;-57
2023/03/18 09:43:56;;;;;;;13.88;12.40;;;;;;;20.11;nan;100918.31;4995292;28;20446;-54
2023/03/18 09:46:52;;;;;;;13.50;11.95;;;;;;;20.47;nan;100979.00;4993939;28;20466;-55
2023/03/18 09:49:46;;;;;;;13.73;11.40;;;;;;;20.96;nan;100987.03;4994757;28;20034;-56
2023/03/18 09:52:21;;;;;;;12.25;11.00;;;;;;;21.44;nan;100994.16;4995346;28;20141;-55
2023/03/18 09:54:58;;;;;;;12.10;10.18;;;;;;;21.20;nan;100926.38;4995424;28;20425;-55
2023/03/18 09:57:26;;;;;;;12.07;10.63;;;;;;;21.20;nan;100990.63;4995776;28;20034;-55
2023/03/18 09:59:57;;;;;;;12.32;10.25;;;;;;;20.88;nan;100952.81;4994372;28;20145;-55
2023/03/18 10:02:31;;;;;;;11.57;9.88;;;;;;;20.47;nan;100945.13;4994327;28;20082;-53
2023/03/18 10:05:00;;;;;;;12.38;10.63;;;;;;;19.27;nan;100941.88;4993669;28;20029;-55
2023/03/18 10:07:31;;;;;;;13.88;12.45;;;;;;;18.53;nan;100960.13;4994372;28;20109;-57
2023/03/18 10:10:05;;;;;;;13.73;11.65;;;;;;;17.62;nan;100920.47;4994865;28;20034;-56
2023/03/18 10:12:36;;;;;;;14.98;13.43;;;;;;;17.34;nan;100938.97;4994128;28;20145;-56
2023/03/18 10:15:03;;;;;;;;;;;;;;;17.21;nan;100949.50;4994090;28;20113;-52
2023/03/18 10:17:39;;;;;;;14.77;13.00;;;;;;;16.71;nan;100957.69;4994669;28;19917;-52
2023/03/18 10:20:30;;;;;;;15.05;13.55;;;;;;;16.52;nan;100956.09;4993469;28;20165;-51
2023/03/18 10:23:05;;;;;;;16.97;15.13;;;;;;;16.17;nan;100921.66;4992733;28;20030;-55
2023/03/18 10:25:51;;;;;;;16.17;13.70;;;;;;;15.19;nan;100767.72;4976902;28;20458;-52
2023/03/18 10:28:40;;;;;;;14.45;13.02;;;;;;;16.20;nan;100953.38;4993045;28;20042;-54
2023/03/18 10:31:17;;;;;;;14.95;13.40;;;;;;;16.06;nan;100957.69;4993714;28;20050;-51
2023/03/18 10:33:53;;;;;;;12.90;11.43;;;;;;;15.60;nan;100884.94;4994064;28;20096;-55
2023/03/18 10:36:38;;;;;;;15.40;13.27;;;;;;;15.92;nan;100945.16;4993879;28;20104;-54
2023/03/18 10:39:14;;;;;;;14.75;13.07;;;;;;;15.83;nan;100939.47;4993892;28;20029;-55
2023/03/18 10:41:39;;;;;;;14.60;13.13;;;;;;;15.93;nan;100930.97;4993615;28;20053;-54
2023/03/18 10:44:29;;;;;;;13.63;12.15;;;;;;;16.29;nan;100955.53;4993050;28;20030;-54
2023/03/18 10:47:07;;;;;;;13.38;11.98;;;;;;;16.75;nan;100958.38;4994371;28;20064;-51
2023/03/18 10:49:37;;;;;;;11.75;10.43;;;;;;;16.59;nan;100905.19;4994316;28;20552;-52
2023/03/18 10:52:14;;;;;;;11.18;9.75;;;;;;;16.52;nan;100881.69;4994517;28;20030;-55
2023/03/18 10:54:49;;;;;;;12.23;9.45;;;;;;;16.33;nan;100900.44;4993543;28;20458;-53
2023/03/18 10:57:15;;;;;;;12.18;10.05;;;;;;;16.38;nan;100970.13;4993278;28;20034;-58
2023/03/18 10:59:44;;;;;;;11.23;9.32;;;;;;;15.73;nan;100894.81;4993229;28;20378;-53
2023/03/18 11:02:21;;;;;;;11.05;9.68;;;;;;;15.93;nan;100962.81;4993878;28;20035;-52
2023/03/18 11:04:54;;;;;;;10.93;9.00;;;;;;;15.66;nan;100959.78;4993543;28;20026;-51
2023/03/18 11:07:25;;;;;;;10.35;9.30;;;;;;;15.64;nan;100966.13;5009030;28;20478;-58
2023/03/18 11:09:51;;;;;;;12.57;9.27;;;;;;;14.89;nan;100878.81;4992715;28;20058;-55
2023/03/18 11:12:27;;;;;;;16.40;11.60;;;;;;;15.18;nan;100959.56;4993084;28;20068;-56
2023/03/18 11:14:53;;;;;;;12.38;10.00;;;;;;;15.09;nan;100960.03;4994334;28;20045;-55
2023/03/18 11:17:30;;;;;;;13.02;9.80;;;;;;;14.58;nan;100899.78;4993975;28;20478;-52
2023/03/18 11:20:19;;;;;;;12.07;10.82;;;;;;;14.74;nan;100964.34;4993389;28;20117;-55
2023/03/18 11:22:47;;;;;;;15.00;10.45;;;;;;;14.50;nan;100954.94;4993763;28;20105;-56
2023/03/18 11:25:15;;;;;;;15.60;11.43;;;;;;;14.35;nan;100942.41;4993758;28;20035;-56
2023/03/18 11:27:42;;;;;;;13.07;11.52;;;;;;;13.87;nan;100879.28;4993937;28;20030;-55
2023/03/18 11:30:27;;;;;;;12.60;11.23;;;;;;;13.73;nan;100871.97;4993070;28;20042;-53
2023/03/18 11:33:06;;;;;;;13.85;12.10;;;;;;;14.17;nan;100946.72;4992639;28;20027;-55
2023/03/18 11:35:57;;;;;;;15.52;12.13;;;;;;;14.19;nan;100939.56;4994021;28;20041;-54